Date,TemperatureHighF,TemperatureAvgF,TemperatureLowF,DewpointHighF,DewpointAvgF,DewpointLowF,HumidityHigh,HumidityAvg,HumidityLow,PressureMaxIn,PressureMinIn,WindSpeedMaxMPH,WindSpeedAvgMPH,GustSpeedMaxMPH,PrecipitationSumIn
2013-1-1,18.3,9.8,4.0,8.5,4.4,0.7,92,79,64,30.27,30.16,1,0,2,0.00
2013-1-2,27.2,19.7,5.2,21.0,13.9,1.2,88,78,60,30.22,30.08,2,0,3,0.00
2013-1-3,26.8,22.9,14.3,21.9,19.3,10.7,90,86,81,30.25,30.07,0,0,3,0.00
2013-1-4,31.2,20.9,11.2,21.4,15.9,7.6,89,81,66,30.22,30.10,1,0,4,0.00
2013-1-5,36.1,27.8,16.4,33.1,25.0,14.0,98,89,78,30.25,29.90,2,0,3,0.00
2013-1-6,34.0,26.6,16.0,32.7,23.4,14.1,95,88,78,30.32,29.88,1,0,2,0.00
2013-1-7,38.4,26.7,13.9,28.3,21.6,12.3,93,82,63,30.31,30.08,4,1,5,0.01
2013-1-8,41.2,33.3,25.2,32.1,28.7,23.5,94,83,68,30.14,29.96,3,1,5,0.03
2013-1-9,42.0,35.4,26.6,33.0,28.3,22.6,88,76,58,30.48,29.93,2,0,11,0.00
2013-1-10,27.1,26.4,25.8,23.4,22.8,22.3,88,86,85,30.51,30.48,0,0,0,0.00
2013-1-11,50.1,47.8,45.2,48.3,46.9,44.7,99,97,92,29.72,29.63,3,2,5,0.14
2013-1-12,51.8,39.6,26.4,48.2,34.5,23.2,92,82,73,29.99,29.63,3,1,7,0.00
2013-1-13,26.4,20.5,13.9,24.0,16.4,8.4,92,84,77,30.23,29.88,1,0,3,0.01
2013-1-14,26.2,17.0,10.0,14.0,10.2,6.6,87,75,53,30.47,30.23,1,0,2,0.00
2013-1-15,20.0,16.8,14.1,15.1,12.8,10.4,87,84,81,30.46,30.12,0,0,0,0.00
2013-1-16,33.2,26.4,15.4,29.6,20.9,11.2,89,80,62,30.12,29.79,2,0,6,0.00
2013-1-17,29.9,21.1,14.1,22.0,11.3,6.6,84,66,48,30.42,30.06,1,0,3,0.00
2013-1-18,40.8,29.1,12.3,32.4,23.0,8.9,88,78,64,30.45,29.85,5,2,8,0.06
2013-1-19,43.3,37.7,20.2,36.2,30.5,9.7,85,76,45,29.89,29.66,2,1,6,0.05
2013-1-20,19.7,12.4,8.1,10.2,2.6,0.6,73,65,53,30.30,29.90,2,0,4,0.00
2013-1-21,10.9,5.2,-2.1,6.2,-2.1,-9.8,84,72,59,30.32,30.15,2,0,4,0.00
2013-1-22,8.8,1.6,-5.8,-1.6,-6.2,-12.5,77,69,60,30.42,30.31,1,0,3,0.00
2013-1-23,18.6,11.7,2.6,13.9,5.8,-3.2,89,77,68,30.42,30.12,3,0,5,0.00
2013-1-24,18.7,10.9,1.1,10.7,2.9,-4.4,78,70,57,30.68,30.42,1,0,2,0.00
2013-1-25,24.3,19.6,15.4,19.7,14.0,6.5,90,79,59,30.41,29.97,2,0,4,0.00
2013-1-26,27.7,18.1,8.2,15.3,10.1,4.6,92,72,50,30.41,30.20,1,0,3,0.02
2013-1-27,32.8,27.4,22.2,32.0,23.5,15.1,97,85,70,30.39,29.90,4,1,7,0.00
2013-1-28,41.6,36.8,32.9,39.1,35.4,32.1,98,95,84,29.97,29.79,2,0,4,0.29
2013-1-29,58.1,46.3,36.0,57.5,45.8,35.0,99,98,96,29.84,29.43,3,0,5,1.21
2013-1-30,38.4,29.1,16.3,37.9,27.9,13.5,98,95,89,29.59,29.24,3,1,7,0.18
2013-1-31,16.5,11.9,3.1,13.9,7.2,-1.7,90,81,72,30.16,29.59,1,0,3,0.00
2013-2-1,8.6,3.6,-2.7,5.4,-1.8,-6.6,88,78,67,30.35,30.16,1,0,3,0.00
2013-2-2,13.8,9.1,2.4,9.2,4.6,-2.0,91,82,68,30.20,30.06,1,0,4,0.00
2013-2-3,20.2,13.0,3.4,12.9,8.2,-0.7,90,81,65,30.08,29.98,1,0,4,0.00
2013-2-4,19.5,14.7,7.7,17.1,10.9,3.1,91,85,75,30.06,29.95,2,0,4,0.00
2013-2-5,27.0,19.0,5.0,23.9,15.3,1.1,91,85,80,30.13,29.82,1,0,3,0.00
2013-2-6,33.7,23.3,8.8,29.9,18.5,6.5,92,82,66,30.27,30.11,2,0,3,0.01
2013-2-7,32.9,31.6,23.4,32.1,30.2,22.4,97,95,88,30.14,29.90,1,0,3,0.00
2013-2-8,25.4,21.6,15.2,22.9,19.6,12.8,96,92,89,30.43,30.02,0,0,0,0.00
2013-2-9,29.7,20.5,8.6,27.1,18.5,6.5,100,92,89,30.43,30.12,0,0,1,0.00
2013-2-10,42.6,34.2,25.6,42.0,33.3,24.3,99,96,90,30.12,29.44,4,1,6,0.12
2013-2-11,39.8,31.5,26.4,36.5,27.6,22.1,90,85,81,29.99,29.44,3,1,9,0.04
2013-2-12,29.7,24.0,18.4,22.1,19.7,16.6,93,84,71,30.10,29.91,1,0,3,0.01
2013-2-13,32.2,26.1,18.5,29.6,24.0,16.8,95,92,88,29.90,29.72,0,0,0,0.07
2013-2-14,35.8,32.8,27.6,34.0,29.5,22.2,94,88,78,29.98,29.59,1,0,3,0.03
2013-2-15,28.4,22.0,13.9,25.9,14.0,7.1,91,72,55,30.20,29.98,2,0,5,0.00
2013-2-16,18.4,11.8,6.2,7.0,3.9,0.9,83,71,53,30.23,30.16,1,0,3,0.00
2013-2-17,27.6,15.9,2.1,15.4,5.8,-2.1,83,65,43,30.25,30.02,2,0,4,0.01
2013-2-18,47.9,35.8,24.9,41.6,30.0,15.3,97,80,66,30.02,29.41,3,1,5,0.59
2013-2-19,31.9,15.4,8.0,30.9,11.5,2.0,96,84,75,30.18,29.49,1,0,4,0.00
2013-2-20,20.6,13.1,5.7,12.1,7.0,0.7,85,77,66,30.41,30.18,1,0,4,0.03
2013-2-21,26.5,21.2,13.4,24.1,17.9,9.5,96,87,81,30.45,30.10,5,1,8,0.00
2013-2-22,30.9,27.6,24.6,29.4,26.2,22.6,96,94,87,30.10,29.80,4,1,9,0.00
2013-2-23,30.8,25.1,19.3,25.8,22.0,16.6,94,88,79,29.95,29.86,1,0,4,0.09
2013-2-24,40.9,27.1,17.8,30.1,21.7,15.6,92,81,55,30.16,29.95,1,0,3,0.10
2013-2-25,40.2,29.5,18.9,28.9,23.6,16.7,93,79,59,30.19,30.05,2,0,4,0.04
2013-2-26,34.4,32.5,31.2,31.4,29.1,26.3,97,88,75,30.05,29.59,6,2,12,0.01
2013-2-27,31.7,31.6,31.4,30.9,30.8,30.6,97,97,97,29.59,29.57,0,0,0,0.00
2013-3-1,24.7,24.2,22.9,22.4,19.8,18.2,92,83,80,30.24,30.18,3,1,6,0.00
2013-3-2,27.6,20.6,11.0,18.9,14.9,7.9,90,78,66,30.24,30.19,2,0,4,0.05
2013-3-3,31.4,18.4,8.0,16.4,9.1,4.8,91,69,39,30.19,30.12,1,0,4,0.03
2013-3-4,32.3,24.6,10.9,24.8,18.7,6.3,92,78,67,30.17,30.07,3,1,6,0.00
2013-3-5,31.5,29.1,26.4,28.1,26.3,24.8,95,89,78,30.07,29.89,3,1,5,0.00
2013-3-6,33.4,29.5,25.9,29.8,26.6,23.9,93,89,84,30.31,30.05,1,0,4,0.26
2013-3-7,38.4,29.5,21.8,25.7,23.0,18.0,90,77,57,30.45,30.31,1,0,3,0.11
2013-3-8,38.2,29.8,20.8,30.2,25.3,18.0,93,84,71,30.49,30.31,3,0,6,0.01
2013-3-9,38.9,34.3,28.1,34.0,30.4,24.7,93,86,79,30.32,29.84,3,1,6,0.07
2013-3-10,44.8,40.0,36.4,44.3,39.2,34.0,99,97,91,29.83,29.61,4,0,6,0.82
2013-3-11,39.8,35.0,30.4,39.5,34.5,29.1,99,98,96,29.74,29.52,1,0,2,0.06
2013-3-12,34.8,29.8,24.5,29.2,26.1,21.8,95,86,66,29.99,29.74,0,0,3,0.05
2013-3-13,32.3,25.4,18.8,22.1,15.2,11.1,90,66,45,30.32,29.99,2,0,4,0.02
2013-3-14,22.6,21.5,20.3,12.7,11.7,10.8,72,66,61,30.32,30.31,0,0,0,0.00
2013-3-15,37.5,33.4,30.9,33.5,30.5,26.8,95,89,82,29.95,29.80,3,1,6,0.06
2013-3-16,33.8,28.4,24.9,28.8,24.1,20.3,100,84,67,30.14,29.80,3,1,6,0.01
2013-3-17,30.4,26.0,19.6,24.4,18.4,11.9,83,73,62,30.27,30.05,3,1,6,0.00
2013-3-18,34.0,29.1,19.0,32.4,26.0,13.6,94,88,78,30.05,29.59,3,1,5,0.16
2013-3-19,31.4,21.4,13.4,16.3,12.9,8.9,83,70,51,30.05,29.72,1,0,4,0.01
2013-3-20,21.7,16.7,10.5,13.1,7.3,2.8,76,66,57,30.08,30.03,1,0,3,0.00
2013-3-21,30.8,20.1,9.4,18.3,10.9,3.6,78,68,53,30.08,30.03,1,0,5,0.00
2013-3-22,35.9,25.2,16.1,19.8,15.0,9.9,80,66,44,30.11,30.03,1,0,3,0.00
2013-3-23,39.7,29.0,20.0,26.6,21.4,16.1,87,74,48,30.17,30.07,2,0,5,0.00
2013-3-24,34.9,31.6,29.7,28.8,26.4,22.7,88,81,74,30.08,29.75,5,2,11,0.00
2013-3-25,34.2,31.1,28.2,28.9,26.1,22.9,90,82,71,30.09,29.77,4,1,8,0.00
2013-3-26,41.1,34.7,29.9,30.4,27.4,25.4,84,75,64,30.25,30.09,1,0,4,0.00
2013-3-27,42.8,36.1,30.9,27.5,24.5,21.5,77,63,45,30.32,30.25,1,0,3,0.00
2013-3-28,47.7,36.7,28.5,27.6,23.0,19.7,74,59,40,30.35,30.29,1,0,3,0.00
2013-3-29,50.7,39.0,27.5,27.5,23.2,19.5,81,55,31,30.32,30.25,1,0,3,0.00
2013-3-30,56.4,43.6,30.2,42.2,32.1,21.5,86,65,46,30.25,29.81,3,1,6,0.00
2013-3-31,54.8,42.0,32.5,43.1,36.2,23.5,95,81,57,29.88,29.68,1,0,4,0.00
2013-4-1,38.0,31.3,26.5,23.3,18.3,14.5,76,59,45,30.19,29.88,2,0,5,0.00
2013-4-2,42.3,31.6,21.8,21.5,17.0,14.7,79,57,35,30.33,30.19,1,0,5,0.00
2013-4-3,43.2,32.9,23.3,21.8,17.9,11.9,79,56,29,30.47,30.31,3,1,6,0.00
2013-4-4,59.4,43.6,28.0,35.9,27.1,15.5,70,53,36,30.31,29.95,2,0,5,0.00
2013-4-5,43.7,37.3,30.2,31.1,26.8,21.6,88,66,53,30.24,30.01,3,1,7,0.00
2013-4-6,62.8,47.0,34.2,50.2,36.7,24.0,91,68,45,30.18,29.54,4,2,7,0.16
2013-4-7,54.1,44.0,35.3,49.8,37.6,32.1,94,79,55,29.98,29.54,3,0,7,0.00
2013-4-8,50.4,41.9,35.4,46.9,39.4,31.6,97,91,82,30.00,29.57,3,1,7,0.63
2013-4-9,39.8,38.0,36.5,39.3,37.3,35.7,98,97,96,30.03,29.89,4,2,13,1.85
2013-4-10,37.8,36.6,33.9,37.0,35.7,32.9,97,97,96,30.05,29.85,5,2,9,0.74
2013-4-11,37.4,36.5,34.8,36.9,35.8,33.8,98,97,96,29.95,29.58,7,3,14,0.47
2013-4-12,41.6,37.4,34.4,40.4,36.3,31.8,99,96,90,29.80,29.53,1,0,3,0.11
2013-4-13,40.1,35.6,30.7,32.7,30.4,27.5,90,81,67,30.00,29.79,1,0,5,0.00
2013-4-14,51.8,38.2,30.6,47.1,35.0,27.2,96,89,79,30.03,29.65,6,2,9,0.08
2013-4-15,62.3,52.0,41.3,53.5,47.7,38.4,98,86,53,29.95,29.64,7,1,12,0.62
2013-4-16,54.9,43.8,34.0,40.2,36.2,32.6,96,77,48,30.30,29.94,2,0,3,0.00
2013-4-17,42.7,40.7,38.7,41.9,37.0,31.7,97,87,68,30.32,29.86,6,2,9,1.01
2013-4-18,53.1,45.6,39.4,52.8,45.0,36.6,99,98,90,29.86,29.37,3,1,7,1.65
2013-4-19,41.3,36.5,31.4,36.6,31.1,25.6,90,81,70,29.89,29.39,2,1,5,0.02
2013-4-20,45.2,34.6,25.4,26.4,22.8,17.1,82,64,35,30.44,29.90,2,0,4,0.02
2013-4-21,47.3,39.1,30.2,32.7,27.2,22.6,92,64,43,30.54,30.31,5,2,7,0.00
2013-4-22,67.9,52.2,38.9,42.1,35.7,31.6,75,55,33,30.31,30.02,4,1,10,0.00
2013-4-23,55.4,44.2,37.7,50.3,40.6,35.3,96,88,62,30.02,29.87,1,0,4,0.53
2013-4-24,47.6,41.1,36.2,35.3,31.7,28.8,91,71,48,30.05,29.93,1,0,2,0.00
2013-4-25,53.5,45.1,36.8,40.0,33.9,29.3,94,67,42,30.30,29.99,1,0,4,0.07
2013-4-26,69.2,53.7,36.9,48.5,39.6,29.0,80,60,40,30.31,30.17,4,2,8,0.00
2013-4-27,68.8,57.1,45.3,50.3,45.2,41.3,93,67,43,30.25,30.00,3,0,5,0.00
2013-4-28,69.5,57.1,50.5,51.6,46.8,40.8,92,69,50,30.00,29.79,2,0,5,0.00
2013-4-29,73.3,60.9,48.6,57.8,52.9,47.5,97,77,49,29.86,29.73,3,1,5,0.04
2013-4-30,87.4,72.7,61.6,62.3,57.6,52.9,88,62,32,29.87,29.70,4,2,8,0.00
2013-5-1,86.2,71.7,49.6,60.0,55.1,41.7,79,58,28,30.15,29.87,4,1,6,0.00
2013-5-2,59.9,47.4,39.9,46.2,41.3,35.8,96,80,59,30.23,30.15,4,1,6,1.28
2013-5-3,47.0,42.4,38.1,46.2,41.2,37.1,100,95,90,30.18,30.00,3,1,6,0.30
2013-5-4,69.3,56.1,45.2,50.9,46.6,42.9,95,73,50,30.05,29.98,4,1,7,0.04
2013-5-5,70.3,58.6,45.4,48.5,43.7,38.1,88,60,40,30.05,29.99,3,1,5,0.00
2013-5-6,74.2,61.7,48.9,44.4,39.6,34.5,69,46,26,30.05,29.97,2,0,4,0.00
2013-5-7,76.5,63.3,49.2,49.0,42.5,36.7,72,49,29,30.04,29.97,2,0,5,0.00
2013-5-8,82.8,65.0,47.4,53.7,45.4,40.5,87,53,26,30.02,29.94,2,0,4,0.00
2013-5-9,68.8,57.6,42.7,58.5,49.8,41.6,96,77,55,29.94,29.86,3,0,6,0.18
2013-5-10,47.7,44.0,41.7,44.5,42.3,40.3,97,94,88,29.98,29.80,3,1,6,0.69
2013-5-11,54.4,45.7,38.8,50.6,38.4,30.5,98,78,47,30.02,29.78,3,0,6,0.01
2013-5-12,54.5,44.8,36.4,34.3,30.4,25.6,84,59,37,30.10,30.02,2,0,6,0.00
2013-5-13,63.3,47.0,34.1,38.1,33.6,27.9,95,64,28,30.18,29.97,2,0,4,0.00
2013-5-14,85.2,66.3,46.6,60.2,50.2,34.5,80,58,30,29.97,29.54,2,0,4,0.01
2013-5-15,74.5,73.0,70.3,61.6,60.6,59.4,72,65,63,29.57,29.54,0,0,2,0.00
2013-5-17,61.5,56.0,48.0,50.0,47.4,44.9,94,74,63,30.08,30.03,2,1,7,0.14
2013-5-18,77.4,63.4,51.9,63.6,54.4,46.1,88,73,60,30.07,29.94,1,0,5,0.00
2013-5-19,82.5,69.3,56.0,67.9,61.4,53.8,93,77,59,29.94,29.68,3,0,6,0.00
2013-5-20,86.2,75.0,66.1,67.5,62.7,58.9,94,68,41,29.73,29.63,2,0,7,0.09
2013-5-21,79.8,69.3,61.6,67.2,62.0,58.4,97,79,52,29.67,29.59,2,0,5,0.08
2013-5-22,66.1,60.6,53.1,65.2,58.5,52.6,98,93,80,29.75,29.60,1,0,3,0.93
2013-5-23,53.5,48.4,40.4,52.7,45.4,35.4,98,89,75,30.32,29.75,2,0,6,0.04
2013-5-24,60.8,47.4,37.0,43.3,37.4,34.2,91,70,45,30.46,30.32,1,0,4,0.00
2013-5-25,58.4,50.4,41.3,42.9,37.5,30.7,84,63,36,30.41,30.31,1,0,2,0.00
2013-5-26,65.2,54.0,41.2,47.0,41.6,35.7,88,65,42,30.31,30.17,2,0,6,0.00
2013-5-27,54.0,51.4,49.5,51.3,48.4,41.7,98,90,66,30.17,29.90,2,0,4,0.05
2013-5-28,69.8,60.4,50.1,69.5,59.6,49.6,99,97,93,29.90,29.67,0,0,5,0.99
2013-5-29,64.6,64.1,63.6,64.3,63.5,62.9,99,98,98,29.78,29.74,0,0,0,0.00
2013-6-1,76.1,70.1,62.4,66.6,64.1,60.7,96,82,68,29.67,29.59,2,0,4,0.03
2013-6-2,62.1,54.4,45.2,60.7,49.8,43.6,96,85,69,30.03,29.64,1,0,6,0.01
2013-6-3,69.8,55.9,43.8,52.5,45.4,40.8,98,71,43,30.10,30.02,0,0,1,0.00
2013-6-4,69.4,58.6,50.8,52.1,45.9,41.7,80,64,45,30.18,30.08,1,0,3,0.00
2013-6-5,61.1,56.0,50.8,53.9,49.6,46.0,93,80,63,30.14,29.97,1,0,2,0.07
2013-6-6,59.5,54.8,51.3,54.7,50.8,47.6,93,86,76,29.98,29.91,1,0,5,0.00
2013-6-7,70.0,60.1,51.7,51.9,46.8,40.4,88,64,36,29.98,29.90,2,0,5,0.00
2013-6-8,72.4,60.0,50.0,54.6,49.4,44.7,88,70,45,30.01,29.91,1,0,3,0.00
2013-6-9,77.6,66.2,54.1,62.5,56.7,48.0,88,72,57,30.01,29.81,2,0,4,0.00
2013-6-10,76.6,67.0,60.5,67.8,63.1,59.1,97,88,72,29.84,29.74,0,0,1,0.00
2013-6-11,82.9,71.4,59.5,68.4,64.1,58.6,98,79,56,29.89,29.76,0,0,1,0.00
2013-6-12,70.4,65.0,62.3,65.6,63.1,60.5,98,94,85,29.86,29.61,2,0,4,1.30
2013-6-13,62.6,58.3,55.7,61.6,55.8,51.6,98,92,76,30.06,29.66,1,0,3,0.01
2013-6-14,75.5,63.3,53.5,60.8,53.2,47.3,91,71,51,30.13,30.01,1,0,3,0.00
2013-6-15,56.9,56.1,55.3,51.5,50.0,49.0,82,80,78,30.03,30.00,0,0,0,0.00
2013-6-22,77.6,73.2,68.0,72.9,69.9,65.9,95,90,85,30.01,29.92,0,0,0,0.97
2013-6-23,86.9,74.9,64.8,76.8,69.6,63.8,98,84,69,30.00,29.85,1,0,4,0.00
2013-6-24,78.2,72.1,67.1,71.6,68.5,65.8,98,89,73,30.01,29.82,0,0,4,0.00
2013-6-25,80.0,70.8,65.0,75.1,69.1,64.4,99,94,82,29.94,29.79,2,0,2,1.75
2013-6-26,76.1,70.3,67.2,71.1,68.4,66.3,99,94,82,29.81,29.69,1,0,1,0.26
2013-6-27,83.9,72.3,66.0,75.2,69.3,64.8,99,91,68,29.76,29.66,1,0,1,0.05
2013-6-28,78.0,69.8,63.3,68.0,64.7,62.4,98,85,65,29.69,29.57,1,0,3,0.45
2013-6-29,71.9,65.7,62.7,63.9,61.1,56.9,98,86,64,29.80,29.58,2,0,6,0.01
2013-6-30,77.2,67.2,59.3,62.4,54.4,46.7,84,65,42,30.01,29.80,2,0,5,0.00
2013-7-1,77.7,68.4,58.7,57.1,52.2,48.3,80,58,39,30.08,30.00,2,0,5,0.00
2013-7-2,72.3,62.9,58.8,58.8,53.3,47.7,91,72,44,30.10,30.06,1,0,5,0.01
2013-7-3,65.7,62.8,59.6,63.5,60.0,54.4,97,91,82,30.06,30.01,0,0,1,0.03
2013-7-4,81.9,69.8,60.2,67.4,62.8,58.4,99,81,46,30.09,30.00,0,0,1,0.00
2013-7-5,83.9,72.9,62.4,69.7,64.0,59.4,96,75,53,30.06,29.98,1,0,3,0.00
2013-7-6,83.9,73.3,63.1,70.2,66.0,61.3,96,79,52,30.03,29.94,0,0,2,0.00
2013-7-7,87.5,75.9,67.4,75.6,70.7,65.9,97,85,65,29.97,29.90,0,0,1,0.00
2013-7-8,82.1,74.9,70.9,77.1,72.0,69.6,97,91,83,29.96,29.88,1,0,3,0.17
2013-7-9,79.0,73.1,67.6,76.9,71.6,66.7,98,95,90,29.97,29.80,0,0,4,0.46
2013-7-10,75.6,70.3,62.8,74.7,67.7,59.3,98,91,71,29.98,29.80,0,0,0,0.01
2013-7-11,79.2,68.3,59.1,63.1,58.1,52.7,94,72,48,30.09,29.99,1,0,4,0.00
2013-7-12,82.6,68.5,55.3,62.3,57.5,52.4,93,71,43,30.15,30.07,0,0,2,0.00
2013-7-13,81.5,70.5,59.4,65.4,61.0,57.0,96,74,49,30.15,30.08,1,0,4,0.00
2013-7-16,91.3,84.5,77.4,79.7,77.1,74.6,91,79,66,30.23,30.19,0,0,6,0.00
2013-7-17,91.9,81.8,73.8,79.0,75.4,70.9,97,82,63,30.25,30.11,0,0,1,0.00
2013-7-18,92.3,82.2,73.7,79.5,74.8,71.0,96,80,60,30.13,29.88,0,0,2,0.00
2013-7-19,91.1,81.5,71.7,77.6,74.1,70.3,96,79,61,29.87,29.69,1,0,4,0.03
2013-7-20,83.3,71.4,64.1,70.3,64.8,58.8,96,81,55,29.94,29.76,1,0,4,0.00
2013-7-21,79.8,68.3,63.3,70.2,62.8,56.8,98,83,65,29.95,29.84,1,0,3,1.02
2013-7-22,84.3,73.4,63.1,74.6,68.6,62.5,99,86,61,29.87,29.66,0,0,4,0.01
2013-7-23,74.4,67.2,59.0,65.3,60.9,55.4,98,81,56,29.97,29.66,1,0,5,0.07
2013-7-24,72.6,62.3,54.2,58.8,55.1,52.5,95,79,55,30.06,29.97,1,0,4,0.00
2013-7-25,77.4,66.8,54.9,64.9,59.4,52.6,95,78,59,30.08,29.95,1,0,3,0.00
2013-7-26,68.4,65.2,60.1,67.1,63.0,59.5,98,93,81,29.96,29.83,1,0,3,0.40
2013-7-27,59.9,56.7,53.4,59.2,53.1,50.1,98,88,74,29.91,29.85,0,0,3,0.00
2013-7-28,65.3,58.2,51.9,57.2,53.5,50.5,95,85,68,29.99,29.83,0,0,2,0.01
2013-7-29,72.9,61.8,52.7,61.2,56.7,51.3,97,84,61,30.17,29.99,0,0,3,0.00
2013-7-30,73.3,64.3,56.7,65.4,61.1,55.6,98,90,70,30.18,30.08,0,0,0,0.18
2013-7-31,74.8,65.3,60.6,69.9,64.3,59.7,100,97,84,30.08,29.92,0,0,3,0.48
2013-8-1,75.1,65.8,59.9,64.7,60.6,58.1,99,85,62,29.97,29.90,0,0,2,0.01
2013-8-2,75.7,67.4,60.7,71.1,63.7,57.6,99,88,72,29.94,29.82,0,0,1,0.48
2013-8-3,75.5,66.5,57.8,61.8,58.2,54.6,93,76,54,30.10,29.93,1,0,4,0.00
2013-8-4,71.4,64.2,58.5,61.3,58.3,55.7,96,82,65,30.21,30.10,1,0,2,0.00
2013-8-5,72.3,63.5,57.1,66.2,60.2,54.9,95,89,75,30.13,29.87,0,0,4,0.02
2013-8-6,82.2,71.5,62.1,73.2,67.8,61.3,99,89,70,29.87,29.78,0,0,2,0.00
2013-8-7,82.3,73.4,65.3,73.3,68.7,63.0,99,86,61,29.94,29.73,1,0,3,0.00
2013-8-8,75.4,67.0,60.1,63.3,57.1,49.9,96,73,44,30.04,29.94,1,0,2,0.00
2013-8-9,78.2,67.9,57.5,68.7,61.6,51.1,90,81,64,30.03,29.96,0,0,1,0.00
2013-8-10,76.4,66.2,57.7,63.4,59.7,56.1,95,80,55,30.13,30.03,0,0,1,0.00
2013-8-11,71.3,64.5,57.1,67.0,61.7,55.1,96,91,83,30.13,30.02,0,0,0,0.02
2013-8-12,77.8,68.8,63.8,70.9,66.0,60.2,99,91,71,30.04,29.88,1,0,3,0.99
2013-8-13,69.2,60.7,52.8,60.6,53.1,48.5,93,77,57,30.18,29.96,1,0,7,0.00
2013-8-14,71.9,60.0,50.9,56.7,52.8,48.4,94,78,50,30.24,30.15,1,0,2,0.00
2013-8-15,55.7,54.7,54.0,53.3,52.8,52.3,94,93,91,30.16,30.14,0,0,0,0.00
2013-8-24,82.4,75.2,66.0,68.9,65.4,62.3,90,73,57,30.24,30.16,0,0,1,0.00
2013-8-25,87.7,75.0,64.1,74.7,67.4,59.2,94,78,57,30.20,30.08,0,0,2,0.00
2013-8-26,87.4,77.1,69.6,78.1,71.6,65.8,94,84,69,30.10,29.94,0,0,3,0.00
2013-8-27,92.1,81.1,73.0,79.6,74.5,70.9,94,81,63,29.94,29.76,0,0,6,0.00
2013-8-28,82.5,75.5,70.2,74.7,71.0,67.8,95,87,70,30.01,29.79,1,0,3,0.00
2013-8-29,86.5,75.1,65.2,73.9,69.0,64.0,97,83,60,30.07,29.95,0,0,2,0.00
2013-8-30,92.0,73.4,66.1,79.7,69.9,64.1,98,90,62,29.96,29.72,3,0,4,0.63
2013-8-31,75.1,68.4,63.4,69.7,65.9,62.2,97,92,82,29.85,29.78,0,0,1,0.00
2013-9-1,82.9,69.6,60.7,74.9,67.0,60.1,99,92,74,29.81,29.69,1,0,2,0.18
2013-9-2,70.3,63.4,56.4,64.3,60.4,54.1,99,90,73,29.99,29.79,1,0,5,0.01
2013-9-3,74.1,61.7,52.4,60.8,55.9,50.6,96,83,56,30.08,29.99,0,0,1,0.00
2013-9-4,77.4,65.6,53.7,68.6,61.3,52.9,98,87,70,30.11,30.02,0,0,2,0.00
2013-9-5,70.1,63.6,54.4,63.8,55.1,49.5,94,75,53,30.27,30.12,1,0,6,0.00
2013-9-6,83.0,67.5,53.5,71.7,61.6,50.7,96,82,64,30.23,29.98,0,0,4,0.00
2013-9-7,78.9,70.1,64.5,71.8,67.8,63.3,97,93,74,29.98,29.87,1,0,2,0.45
2013-9-8,70.3,67.6,65.3,67.8,65.2,63.5,95,92,85,30.04,29.95,2,0,5,0.00
2013-9-9,86.5,75.6,66.2,78.5,71.9,64.8,98,89,75,29.97,29.77,1,0,2,0.00
2013-9-10,92.4,80.1,70.7,73.3,69.3,65.2,88,71,46,29.92,29.79,1,0,6,0.00
2013-9-11,78.0,72.2,66.3,69.2,67.5,64.5,94,86,72,29.95,29.90,0,0,0,0.00
2013-9-12,74.9,65.2,57.4,66.1,61.4,50.9,97,88,67,30.10,29.93,1,0,10,0.28
2013-9-13,64.9,55.0,47.4,50.8,47.1,43.5,89,76,49,30.20,30.11,1,0,4,0.00
2013-9-14,69.6,56.7,45.8,53.8,49.3,44.2,96,78,50,30.18,30.01,0,0,1,0.00
2013-9-15,57.8,55.4,52.3,57.2,53.6,49.2,98,94,79,30.21,29.99,1,0,3,0.45
2013-9-16,62.3,52.7,44.3,52.4,47.4,42.1,94,83,61,30.39,30.21,2,0,6,0.00
2013-9-17,66.4,56.7,45.8,56.9,52.4,44.4,97,86,69,30.35,30.11,1,0,4,0.00
2013-9-18,77.7,65.6,57.5,69.6,62.1,54.9,97,89,74,30.11,29.89,1,0,4,0.11
2013-9-19,79.9,70.6,66.5,74.3,68.6,65.1,99,94,82,29.90,29.72,1,0,5,0.50
2013-9-20,71.0,64.9,57.0,68.3,62.8,54.5,99,93,79,29.79,29.69,0,0,1,0.01
2013-9-21,58.3,54.1,48.8,55.2,50.7,47.4,96,88,73,29.95,29.78,1,0,4,0.00
2013-9-22,63.4,52.1,44.5,50.4,46.4,42.0,96,82,50,30.08,29.95,1,0,4,0.00
2013-9-23,63.0,53.9,45.3,53.3,49.5,44.1,100,86,67,30.14,30.05,1,0,4,0.00
2013-9-24,67.3,57.7,50.8,57.6,52.9,49.7,97,85,62,30.07,29.96,1,0,3,0.00
2013-9-25,67.5,57.7,50.3,58.7,52.8,49.2,98,85,62,29.99,29.94,1,0,4,0.00
2013-9-26,73.3,61.0,51.9,61.3,54.2,47.1,98,81,43,30.09,29.98,1,0,5,0.00
2013-9-27,77.8,64.2,55.3,59.1,56.0,52.9,97,77,50,30.16,30.05,1,0,3,0.00
2013-9-28,79.8,66.5,56.3,65.9,59.6,54.9,96,80,55,30.06,29.83,2,0,7,0.12
2013-9-29,69.5,56.8,49.0,54.6,50.0,43.5,98,81,41,30.05,29.92,0,0,3,0.03
2013-9-30,71.4,58.2,47.0,54.1,50.5,45.1,95,78,51,30.00,29.84,1,0,6,0.00
2013-10-1,80.1,65.5,54.2,66.4,59.9,50.8,98,84,60,29.94,29.82,2,0,6,0.00
2013-10-2,75.8,62.8,51.3,60.2,49.9,38.8,95,68,30,30.10,29.94,0,0,2,0.00
2013-10-3,72.4,65.5,59.3,69.1,63.5,54.6,99,94,81,29.99,29.83,1,0,3,0.67
2013-10-4,67.2,63.5,61.1,66.6,63.0,60.7,99,98,97,30.00,29.87,1,0,4,0.10
2013-10-5,71.3,65.0,61.5,71.2,64.7,61.2,100,99,97,29.95,29.71,2,0,3,0.54
2013-10-6,64.3,53.2,45.9,64.0,49.7,44.2,99,89,66,29.74,29.66,0,0,2,0.09
2013-10-7,64.0,52.2,45.5,52.4,47.9,44.3,98,86,59,30.09,29.71,0,0,2,0.02
2013-10-8,75.3,58.3,45.6,55.7,49.9,44.3,97,76,41,30.18,30.09,1,0,5,0.00
2013-10-9,56.7,54.4,52.8,51.6,50.3,49.0,89,86,81,30.16,30.14,0,0,0,0.00
2013-10-10,73.3,62.8,53.4,56.7,53.3,49.9,98,74,46,30.17,30.05,1,0,3,0.00
2013-10-11,73.6,61.5,54.2,60.5,55.3,52.8,97,81,58,30.06,29.95,2,0,5,0.00
2013-10-12,65.4,58.6,49.2,63.3,54.9,44.7,97,87,74,30.15,29.92,1,0,1,0.09
2013-10-13,61.4,49.4,41.9,47.1,43.0,40.1,95,80,51,30.41,30.15,1,0,5,0.00
2013-10-14,59.0,49.6,40.6,48.2,43.9,38.8,94,81,62,30.43,30.15,2,0,4,0.00
2013-10-15,59.6,53.5,46.0,59.0,51.5,44.4,98,93,85,30.15,29.73,1,0,2,0.19
2013-10-16,54.8,49.5,45.1,51.5,48.0,43.8,96,94,88,29.92,29.78,0,0,1,0.02
2013-10-17,48.7,46.2,40.9,48.2,45.2,40.1,100,96,93,29.91,29.81,0,0,0,0.12
2013-10-18,49.6,43.4,38.4,46.8,41.0,37.6,98,91,81,29.95,29.82,0,0,3,0.00
2013-10-19,52.5,43.7,37.3,40.7,38.8,36.2,97,84,58,29.92,29.75,1,0,2,0.00
2013-10-20,50.4,43.4,34.5,47.3,40.0,33.5,98,89,60,29.86,29.73,1,0,2,0.05
2013-10-21,46.0,40.6,31.1,45.2,35.0,26.5,97,81,65,29.94,29.75,0,0,4,0.00
2013-10-22,46.1,36.1,29.0,33.4,29.6,25.3,89,78,57,29.98,29.91,0,0,1,0.00
2013-10-23,45.4,36.0,28.6,31.3,28.6,25.7,93,76,48,30.02,29.93,1,0,2,0.00
2013-10-24,42.0,36.5,32.2,31.1,29.0,26.6,86,74,63,30.29,30.01,1,0,2,0.00
2013-10-25,50.2,39.5,26.8,33.8,29.1,24.8,94,68,49,30.39,29.94,2,0,5,0.00
2013-10-26,52.1,46.2,39.9,39.3,32.6,28.3,76,59,48,30.06,29.79,2,0,6,0.00
2013-10-27,55.2,42.3,31.8,34.6,32.0,28.7,89,68,43,30.05,29.92,1,0,4,0.00
2013-10-28,44.4,41.4,36.7,38.4,34.8,30.4,87,77,69,30.42,30.05,3,1,6,0.00
2013-10-29,51.2,43.7,36.0,44.9,39.8,30.8,95,86,74,30.40,30.15,2,0,2,0.00
2013-10-30,57.3,50.4,44.1,56.2,48.9,42.7,98,94,89,30.15,29.73,3,0,7,0.01
2013-10-31,61.4,56.8,44.1,61.1,56.4,43.6,99,99,97,29.74,29.20,0,0,2,0.55
2013-11-1,46.1,43.7,41.6,44.0,42.0,39.4,98,94,90,29.72,29.29,0,0,2,0.05
2013-11-2,46.7,42.1,39.6,42.4,40.1,37.9,98,93,75,30.15,29.72,1,0,1,0.01
2013-11-3,50.6,42.1,32.3,41.1,37.4,31.3,98,85,58,30.31,30.15,2,0,4,0.00
2013-11-4,55.0,48.7,43.1,46.0,41.9,38.7,90,78,61,30.26,30.07,3,1,6,0.00
2013-11-5,55.5,51.3,48.0,50.6,48.2,45.5,96,89,78,30.25,29.90,2,0,5,0.01
2013-11-6,55.4,44.6,30.1,54.7,42.8,27.0,98,93,80,30.15,29.72,2,0,5,0.38
2013-11-7,43.4,34.5,27.6,35.9,30.4,25.8,93,85,72,30.23,30.15,0,0,2,0.00
2013-11-8,46.1,37.1,26.6,35.7,31.6,25.4,97,81,66,30.32,29.89,2,0,4,0.01
2013-11-9,53.2,46.8,40.7,42.7,37.9,28.5,83,71,60,30.05,29.77,3,0,5,0.00
2013-11-10,49.8,42.3,36.2,33.8,31.4,28.8,75,66,48,30.31,30.05,2,0,5,0.00
2013-11-11,43.5,33.8,21.9,35.8,28.5,18.1,95,81,70,30.54,30.05,1,0,2,0.13
2013-11-12,31.8,24.2,19.7,21.9,18.0,15.3,88,77,59,30.72,30.54,1,0,4,0.02
2013-11-13,20.3,19.2,18.5,16.2,15.4,14.7,86,85,84,30.59,30.55,0,0,0,0.00
2013-11-14,47.4,41.7,32.2,31.5,29.3,22.8,73,62,52,30.01,29.91,2,0,5,0.00
2013-11-15,55.7,43.6,37.8,35.9,32.6,29.0,90,66,45,29.95,29.89,1,0,3,0.00
2013-11-16,58.5,48.2,36.4,56.5,46.9,34.0,98,95,90,29.92,29.52,5,2,7,0.12
2013-11-17,63.1,57.8,53.3,61.7,56.5,52.5,99,95,92,29.52,29.03,4,1,5,0.62
2013-11-24,27.2,22.9,18.6,10.9,8.8,6.5,65,55,44,30.71,30.32,3,1,4,0.00
2013-11-25,22.5,21.3,20.6,12.6,10.9,8.9,69,64,57,30.32,30.24,3,2,4,0.00
2013-11-30,46.2,39.5,32.4,33.7,32.0,29.5,90,75,60,30.13,30.04,2,0,6,0.01
2013-12-1,40.5,33.4,28.3,30.8,28.7,26.0,93,83,64,30.13,29.99,1,0,3,0.00
2013-12-2,40.0,34.3,27.7,34.8,30.6,26.2,96,87,72,29.99,29.79,3,1,4,0.03
2013-12-3,40.5,38.1,33.5,40.2,37.5,32.2,99,98,95,29.79,29.69,2,1,5,0.20
2013-12-4,50.8,43.4,36.6,50.5,43.1,35.8,99,99,97,29.76,29.47,2,0,4,0.02
2013-12-5,36.5,25.4,17.1,35.5,20.3,11.3,97,81,69,30.26,29.60,1,0,4,0.00
2013-12-6,17.1,13.1,8.6,11.1,6.9,2.6,84,76,68,30.57,30.25,1,0,2,0.01
2013-12-7,17.2,9.0,2.8,5.8,2.8,-1.7,93,76,60,30.73,30.57,1,0,4,0.00
2013-12-8,25.1,18.5,7.4,24.0,15.1,1.8,96,86,66,30.66,29.96,2,0,3,0.00
2013-12-9,24.8,16.0,0.3,23.7,11.9,-4.9,96,84,69,30.20,29.93,2,0,3,0.00
2013-12-11,3.5,-1.6,-3.9,-4.4,-7.6,-9.0,79,75,69,30.57,30.53,0,0,0,0.00
2013-12-12,-3.9,-4.3,-5.2,-8.2,-8.8,-9.5,83,81,79,30.56,30.50,0,0,1,0.00
2013-12-13,27.1,26.0,22.9,24.3,23.2,20.1,91,89,88,30.21,30.18,3,2,5,0.00
2013-12-14,27.3,24.9,19.6,24.6,22.6,17.7,94,91,88,30.18,29.94,3,1,7,0.00
2013-12-15,20.6,12.1,3.9,18.6,6.0,-3.1,92,77,64,30.16,29.91,1,0,3,0.00
2013-12-16,18.6,9.5,-2.9,12.6,4.1,-7.7,89,79,56,30.20,30.04,2,0,3,0.00
2013-12-17,34.0,24.1,14.3,27.7,19.8,11.7,100,84,72,30.07,29.92,1,0,2,0.05
2013-12-18,34.6,24.6,10.8,28.1,17.1,7.1,87,74,46,30.13,29.79,3,1,6,0.00
2013-12-19,32.9,30.4,25.7,31.3,27.7,23.4,96,90,81,29.98,29.80,2,1,5,0.00
2013-12-20,32.3,29.2,26.1,31.3,28.2,25.1,96,96,95,29.87,29.78,3,0,4,0.00
2013-12-21,32.6,28.6,25.2,32.0,27.8,24.2,98,97,95,29.89,29.67,3,0,6,0.00
2013-12-22,30.9,26.1,19.8,29.6,24.8,18.1,97,95,92,30.12,29.65,2,0,5,0.00
2013-12-23,19.7,11.6,-0.2,18.0,9.0,-3.6,95,89,83,30.42,30.12,0,0,0,0.00
2013-12-24,18.2,5.6,-3.4,11.3,2.2,-6.3,90,85,72,30.58,30.38,0,0,1,0.00
2013-12-25,23.2,19.8,10.4,20.9,17.7,8.0,93,92,89,30.38,30.09,1,0,2,0.00
2013-12-26,26.2,21.0,10.5,24.7,18.4,8.0,94,90,84,30.28,30.09,1,0,2,0.00
2013-12-27,37.5,28.5,17.7,31.9,25.7,16.3,96,89,76,30.29,30.02,2,0,4,0.03
2013-12-28,43.7,36.4,27.4,34.7,31.5,25.4,93,83,71,30.07,29.76,3,1,5,0.45
2013-12-29,39.0,22.4,1.6,32.1,17.7,-3.7,93,82,71,30.22,29.74,3,1,5,0.01
2013-12-30,6.3,0.0,-8.4,-1.0,-6.2,-12.9,92,75,58,30.37,30.22,1,0,2,0.00
2013-12-31,9.2,5.1,-0.7,6.1,0.8,-4.5,92,82,73,30.41,30.23,1,0,2,0.00
2014-1-1,15.5,9.6,3.0,12.9,5.9,-4.6,90,85,69,30.39,30.29,2,1,4,0.00
2014-1-2,15.4,8.4,-4.5,9.4,4.0,-8.8,89,82,72,30.45,30.25,2,0,3,0.00